sensor_id;sensor_type;location;lat;lon;timestamp;P1;durP1;ratioP1;P2;durP2;ratioP2
18364;SDS011;9309;52.126;11.616;2023-03-17T00:01:17;7.33;;;5.60;;
18364;SDS011;9309;52.126;11.616;2023-03-17T00:03:46;9.07;;;5.07;;
18364;SDS011;9309;52.126;11.616;2023-03-17T00:06:14;11.40;;;5.80;;
18364;SDS011;9309;52.126;11.616;2023-03-17T00:08:43;9.93;;;5.13;;
18364;SDS011;9309;52.126;11.616;2023-03-17T00:11:10;15.07;;;5.97;;
18364;SDS011;9309;52.126;11.616;2023-03-17T00:13:40;12.53;;;5.50;;
18364;SDS011;9309;52.126;11.616;2023-03-17T00:16:09;6.77;;;4.70;;
18364;SDS011;9309;52.126;11.616;2023-03-17T00:18:40;7.43;;;5.20;;
18364;SDS011;9309;52.126;11.616;2023-03-17T00:21:08;7.67;;;4.50;;
18364;SDS011;9309;52.126;11.616;2023-03-17T00:23:38;12.77;;;6.60;;
18364;SDS011;9309;52.126;11.616;2023-03-17T00:26:05;6.97;;;4.50;;
18364;SDS011;9309;52.126;11.616;2023-03-17T00:28:32;8.93;;;5.53;;
18364;SDS011;9309;52.126;11.616;2023-03-17T00:31:00;9.77;;;4.60;;
18364;SDS011;9309;52.126;11.616;2023-03-17T00:33:38;14.73;;;5.30;;
18364;SDS011;9309;52.126;11.616;2023-03-17T00:36:08;7.17;;;5.87;;
18364;SDS011;9309;52.126;11.616;2023-03-17T00:38:38;7.47;;;4.23;;
18364;SDS011;9309;52.126;11.616;2023-03-17T00:41:05;8.07;;;5.27;;
18364;SDS011;9309;52.126;11.616;2023-03-17T00:43:33;10.10;;;5.23;;
18364;SDS011;9309;52.126;11.616;2023-03-17T00:46:01;9.23;;;5.40;;
18364;SDS011;9309;52.126;11.616;2023-03-17T00:48:34;6.60;;;4.90;;
18364;SDS011;9309;52.126;11.616;2023-03-17T00:51:02;8.30;;;5.67;;
18364;SDS011;9309;52.126;11.616;2023-03-17T00:53:29;8.80;;;5.77;;
18364;SDS011;9309;52.126;11.616;2023-03-17T00:55:57;12.17;;;4.93;;
18364;SDS011;9309;52.126;11.616;2023-03-17T00:58:25;6.93;;;5.33;;
18364;SDS011;9309;52.126;11.616;2023-03-17T01:00:53;9.40;;;5.60;;
18364;SDS011;9309;52.126;11.616;2023-03-17T01:03:22;6.47;;;4.30;;
18364;SDS011;9309;52.126;11.616;2023-03-17T01:05:50;5.17;;;4.70;;
18364;SDS011;9309;52.126;11.616;2023-03-17T01:08:21;7.20;;;4.90;;
18364;SDS011;9309;52.126;11.616;2023-03-17T01:10:49;8.67;;;5.37;;
18364;SDS011;9309;52.126;11.616;2023-03-17T01:13:17;6.00;;;5.37;;
18364;SDS011;9309;52.126;11.616;2023-03-17T01:15:46;5.97;;;4.43;;
18364;SDS011;9309;52.126;11.616;2023-03-17T01:18:15;4.93;;;3.80;;
18364;SDS011;9309;52.126;11.616;2023-03-17T01:20:44;7.97;;;4.70;;
18364;SDS011;9309;52.126;11.616;2023-03-17T01:23:11;10.27;;;5.60;;
18364;SDS011;9309;52.126;11.616;2023-03-17T01:25:39;7.90;;;4.50;;
18364;SDS011;9309;52.126;11.616;2023-03-17T01:28:08;13.27;;;6.10;;
18364;SDS011;9309;52.126;11.616;2023-03-17T01:30:38;9.97;;;5.43;;
18364;SDS011;9309;52.126;11.616;2023-03-17T01:33:07;8.43;;;5.67;;
18364;SDS011;9309;52.126;11.616;2023-03-17T01:35:37;7.27;;;5.33;;
18364;SDS011;9309;52.126;11.616;2023-03-17T01:38:06;11.20;;;5.37;;
18364;SDS011;9309;52.126;11.616;2023-03-17T01:40:34;7.07;;;5.23;;
18364;SDS011;9309;52.126;11.616;2023-03-17T01:43:12;7.27;;;5.30;;
18364;SDS011;9309;52.126;11.616;2023-03-17T01:48:41;7.70;;;5.17;;
18364;SDS011;9309;52.126;11.616;2023-03-17T01:51:12;6.20;;;5.60;;
18364;SDS011;9309;52.126;11.616;2023-03-17T01:53:45;11.97;;;6.27;;
18364;SDS011;9309;52.126;11.616;2023-03-17T01:56:15;8.10;;;5.87;;
18364;SDS011;9309;52.126;11.616;2023-03-17T01:58:42;8.57;;;4.17;;
18364;SDS011;9309;52.126;11.616;2023-03-17T02:01:11;7.13;;;5.50;;
18364;SDS011;9309;52.126;11.616;2023-03-17T02:03:38;10.47;;;6.23;;
18364;SDS011;9309;52.126;11.616;2023-03-17T02:06:06;8.77;;;5.50;;
18364;SDS011;9309;52.126;11.616;2023-03-17T02:08:33;6.83;;;5.73;;
18364;SDS011;9309;52.126;11.616;2023-03-17T02:11:01;11.37;;;5.37;;
18364;SDS011;9309;52.126;11.616;2023-03-17T02:13:29;10.07;;;5.67;;
18364;SDS011;9309;52.126;11.616;2023-03-17T02:15:56;10.40;;;5.77;;
18364;SDS011;9309;52.126;11.616;2023-03-17T02:18:23;8.07;;;5.50;;
18364;SDS011;9309;52.126;11.616;2023-03-17T02:23:54;8.47;;;4.40;;
18364;SDS011;9309;52.126;11.616;2023-03-17T02:26:22;8.93;;;5.83;;
18364;SDS011;9309;52.126;11.616;2023-03-17T02:28:50;8.00;;;5.13;;
18364;SDS011;9309;52.126;11.616;2023-03-17T02:31:17;6.63;;;5.50;;
18364;SDS011;9309;52.126;11.616;2023-03-17T02:33:44;11.17;;;5.57;;
18364;SDS011;9309;52.126;11.616;2023-03-17T02:36:11;6.03;;;5.27;;
18364;SDS011;9309;52.126;11.616;2023-03-17T02:38:40;7.57;;;5.40;;
18364;SDS011;9309;52.126;11.616;2023-03-17T02:41:06;5.07;;;4.57;;
18364;SDS011;9309;52.126;11.616;2023-03-17T02:43:33;7.97;;;4.97;;
18364;SDS011;9309;52.126;11.616;2023-03-17T02:46:01;10.97;;;5.13;;
18364;SDS011;9309;52.126;11.616;2023-03-17T02:48:28;7.80;;;5.80;;
18364;SDS011;9309;52.126;11.616;2023-03-17T02:50:54;5.27;;;4.77;;
18364;SDS011;9309;52.126;11.616;2023-03-17T03:05:35;6.63;;;4.40;;
18364;SDS011;9309;52.126;11.616;2023-03-17T03:08:02;7.80;;;4.80;;
18364;SDS011;9309;52.126;11.616;2023-03-17T03:10:28;9.63;;;4.90;;
18364;SDS011;9309;52.126;11.616;2023-03-17T03:12:57;14.10;;;5.50;;
18364;SDS011;9309;52.126;11.616;2023-03-17T03:15:24;10.17;;;5.17;;
18364;SDS011;9309;52.126;11.616;2023-03-17T03:17:50;11.70;;;5.87;;
18364;SDS011;9309;52.126;11.616;2023-03-17T03:20:18;10.93;;;5.43;;
18364;SDS011;9309;52.126;11.616;2023-03-17T03:22:44;7.53;;;5.27;;
18364;SDS011;9309;52.126;11.616;2023-03-17T03:25:11;5.47;;;4.80;;
18364;SDS011;9309;52.126;11.616;2023-03-17T03:27:38;9.03;;;5.10;;
18364;SDS011;9309;52.126;11.616;2023-03-17T03:30:07;6.87;;;4.30;;
18364;SDS011;9309;52.126;11.616;2023-03-17T03:32:34;5.37;;;4.67;;
18364;SDS011;9309;52.126;11.616;2023-03-17T03:35:01;5.50;;;5.00;;
18364;SDS011;9309;52.126;11.616;2023-03-17T03:37:28;5.83;;;5.30;;
18364;SDS011;9309;52.126;11.616;2023-03-17T03:39:55;7.37;;;5.30;;
18364;SDS011;9309;52.126;11.616;2023-03-17T03:42:22;5.90;;;4.80;;
18364;SDS011;9309;52.126;11.616;2023-03-17T03:44:48;5.83;;;5.23;;
18364;SDS011;9309;52.126;11.616;2023-03-17T03:47:16;7.10;;;4.33;;
18364;SDS011;9309;52.126;11.616;2023-03-17T03:49:43;8.10;;;5.43;;
18364;SDS011;9309;52.126;11.616;2023-03-17T03:52:10;9.10;;;5.10;;
18364;SDS011;9309;52.126;11.616;2023-03-17T03:54:36;7.30;;;4.97;;
18364;SDS011;9309;52.126;11.616;2023-03-17T03:57:03;9.00;;;4.23;;
18364;SDS011;9309;52.126;11.616;2023-03-17T03:59:30;8.23;;;5.00;;
18364;SDS011;9309;52.126;11.616;2023-03-17T04:01:57;10.60;;;5.20;;
18364;SDS011;9309;52.126;11.616;2023-03-17T04:04:25;8.20;;;4.53;;
18364;SDS011;9309;52.126;11.616;2023-03-17T04:06:51;16.90;;;5.13;;
18364;SDS011;9309;52.126;11.616;2023-03-17T04:09:18;7.67;;;5.20;;
18364;SDS011;9309;52.126;11.616;2023-03-17T04:11:44;7.00;;;4.40;;
18364;SDS011;9309;52.126;11.616;2023-03-17T04:14:11;8.13;;;5.13;;
18364;SDS011;9309;52.126;11.616;2023-03-17T04:16:38;5.37;;;4.43;;
18364;SDS011;9309;52.126;11.616;2023-03-17T04:19:05;6.67;;;4.87;;
18364;SDS011;9309;52.126;11.616;2023-03-17T04:21:34;6.97;;;4.90;;
18364;SDS011;9309;52.126;11.616;2023-03-17T04:24:01;6.77;;;5.23;;
18364;SDS011;9309;52.126;11.616;2023-03-17T04:26:29;5.20;;;4.70;;
18364;SDS011;9309;52.126;11.616;2023-03-17T04:28:55;5.20;;;4.70;;
18364;SDS011;9309;52.126;11.616;2023-03-17T04:31:22;8.60;;;5.30;;
18364;SDS011;9309;52.126;11.616;2023-03-17T04:33:49;6.33;;;4.10;;
18364;SDS011;9309;52.126;11.616;2023-03-17T04:36:17;11.73;;;4.80;;
18364;SDS011;9309;52.126;11.616;2023-03-17T04:38:46;6.97;;;5.23;;
18364;SDS011;9309;52.126;11.616;2023-03-17T04:41:13;6.10;;;4.90;;
18364;SDS011;9309;52.126;11.616;2023-03-17T04:43:39;8.43;;;5.00;;
18364;SDS011;9309;52.126;11.616;2023-03-17T04:46:06;4.70;;;4.30;;
18364;SDS011;9309;52.126;11.616;2023-03-17T04:48:33;5.37;;;4.73;;
18364;SDS011;9309;52.126;11.616;2023-03-17T04:51:00;7.27;;;4.73;;
18364;SDS011;9309;52.126;11.616;2023-03-17T04:53:27;7.20;;;4.73;;
18364;SDS011;9309;52.126;11.616;2023-03-17T04:55:55;6.17;;;4.30;;
18364;SDS011;9309;52.126;11.616;2023-03-17T04:58:22;7.00;;;5.40;;
18364;SDS011;9309;52.126;11.616;2023-03-17T05:00:50;5.33;;;4.70;;
18364;SDS011;9309;52.126;11.616;2023-03-17T05:03:16;6.77;;;4.87;;
18364;SDS011;9309;52.126;11.616;2023-03-17T05:05:44;9.47;;;4.67;;
18364;SDS011;9309;52.126;11.616;2023-03-17T05:08:11;7.53;;;4.90;;
18364;SDS011;9309;52.126;11.616;2023-03-17T05:10:37;7.37;;;4.63;;
18364;SDS011;9309;52.126;11.616;2023-03-17T05:13:06;6.67;;;4.60;;
18364;SDS011;9309;52.126;11.616;2023-03-17T05:15:32;8.17;;;4.77;;
18364;SDS011;9309;52.126;11.616;2023-03-17T05:17:59;6.40;;;5.13;;
18364;SDS011;9309;52.126;11.616;2023-03-17T05:20:25;4.90;;;4.50;;
18364;SDS011;9309;52.126;11.616;2023-03-17T05:22:52;5.47;;;4.50;;
18364;SDS011;9309;52.126;11.616;2023-03-17T05:25:19;5.87;;;4.60;;
18364;SDS011;9309;52.126;11.616;2023-03-17T05:27:45;7.30;;;4.37;;
18364;SDS011;9309;52.126;11.616;2023-03-17T05:32:42;7.63;;;4.60;;
18364;SDS011;9309;52.126;11.616;2023-03-17T05:35:09;6.53;;;5.03;;
18364;SDS011;9309;52.126;11.616;2023-03-17T05:37:36;5.27;;;4.23;;
18364;SDS011;9309;52.126;11.616;2023-03-17T05:40:03;4.80;;;4.07;;
18364;SDS011;9309;52.126;11.616;2023-03-17T05:42:30;6.93;;;4.60;;
18364;SDS011;9309;52.126;11.616;2023-03-17T05:44:56;5.40;;;3.57;;
18364;SDS011;9309;52.126;11.616;2023-03-17T05:47:24;7.53;;;4.30;;
18364;SDS011;9309;52.126;11.616;2023-03-17T05:49:51;6.97;;;4.77;;
18364;SDS011;9309;52.126;11.616;2023-03-17T05:52:18;4.33;;;3.90;;
18364;SDS011;9309;52.126;11.616;2023-03-17T05:54:44;5.70;;;3.47;;
18364;SDS011;9309;52.126;11.616;2023-03-17T05:57:13;7.67;;;4.00;;
18364;SDS011;9309;52.126;11.616;2023-03-17T05:59:40;5.13;;;3.23;;
18364;SDS011;9309;52.126;11.616;2023-03-17T06:02:07;9.20;;;4.87;;
18364;SDS011;9309;52.126;11.616;2023-03-17T06:04:36;4.63;;;3.87;;
18364;SDS011;9309;52.126;11.616;2023-03-17T06:07:03;5.30;;;3.93;;
18364;SDS011;9309;52.126;11.616;2023-03-17T06:09:30;8.60;;;4.20;;
18364;SDS011;9309;52.126;11.616;2023-03-17T06:11:57;5.43;;;3.90;;
18364;SDS011;9309;52.126;11.616;2023-03-17T06:14:23;4.37;;;3.83;;
18364;SDS011;9309;52.126;11.616;2023-03-17T06:16:50;5.03;;;4.07;;
18364;SDS011;9309;52.126;11.616;2023-03-17T06:19:17;5.83;;;4.20;;
18364;SDS011;9309;52.126;11.616;2023-03-17T06:21:45;5.43;;;4.47;;
18364;SDS011;9309;52.126;11.616;2023-03-17T06:24:12;5.33;;;4.63;;
18364;SDS011;9309;52.126;11.616;2023-03-17T06:26:38;8.27;;;4.60;;
18364;SDS011;9309;52.126;11.616;2023-03-17T06:29:06;9.53;;;5.30;;
18364;SDS011;9309;52.126;11.616;2023-03-17T06:31:33;4.60;;;4.07;;
18364;SDS011;9309;52.126;11.616;2023-03-17T06:34:00;4.63;;;3.47;;
18364;SDS011;9309;52.126;11.616;2023-03-17T06:36:27;10.03;;;4.67;;
18364;SDS011;9309;52.126;11.616;2023-03-17T06:38:55;4.23;;;3.83;;
18364;SDS011;9309;52.126;11.616;2023-03-17T06:41:24;5.57;;;4.00;;
18364;SDS011;9309;52.126;11.616;2023-03-17T06:43:51;6.70;;;4.07;;
18364;SDS011;9309;52.126;11.616;2023-03-17T06:46:18;6.90;;;4.07;;
18364;SDS011;9309;52.126;11.616;2023-03-17T06:48:44;9.47;;;3.83;;
18364;SDS011;9309;52.126;11.616;2023-03-17T06:51:11;6.90;;;4.47;;
18364;SDS011;9309;52.126;11.616;2023-03-17T06:53:38;4.40;;;4.00;;
18364;SDS011;9309;52.126;11.616;2023-03-17T06:56:06;5.83;;;3.87;;
18364;SDS011;9309;52.126;11.616;2023-03-17T06:58:33;6.00;;;3.80;;
18364;SDS011;9309;52.126;11.616;2023-03-17T07:01:00;4.67;;;3.60;;
18364;SDS011;9309;52.126;11.616;2023-03-17T07:03:28;3.33;;;3.03;;
18364;SDS011;9309;52.126;11.616;2023-03-17T07:05:55;4.37;;;3.30;;
18364;SDS011;9309;52.126;11.616;2023-03-17T07:08:22;9.63;;;4.50;;
18364;SDS011;9309;52.126;11.616;2023-03-17T07:10:49;7.53;;;3.93;;
18364;SDS011;9309;52.126;11.616;2023-03-17T07:13:18;4.60;;;4.20;;
18364;SDS011;9309;52.126;11.616;2023-03-17T07:15:44;5.70;;;4.20;;
18364;SDS011;9309;52.126;11.616;2023-03-17T07:18:12;3.87;;;3.63;;
18364;SDS011;9309;52.126;11.616;2023-03-17T07:20:39;3.53;;;3.33;;
18364;SDS011;9309;52.126;11.616;2023-03-17T07:23:05;5.70;;;4.00;;
18364;SDS011;9309;52.126;11.616;2023-03-17T07:25:44;3.37;;;3.00;;
18364;SDS011;9309;52.126;11.616;2023-03-17T07:28:11;5.80;;;3.80;;
18364;SDS011;9309;52.126;11.616;2023-03-17T07:30:39;6.17;;;3.40;;
18364;SDS011;9309;52.126;11.616;2023-03-17T07:33:10;3.00;;;2.90;;
18364;SDS011;9309;52.126;11.616;2023-03-17T07:35:37;5.17;;;3.90;;
18364;SDS011;9309;52.126;11.616;2023-03-17T07:38:04;4.77;;;3.87;;
18364;SDS011;9309;52.126;11.616;2023-03-17T07:40:32;3.67;;;2.77;;
18364;SDS011;9309;52.126;11.616;2023-03-17T07:42:59;4.17;;;3.80;;
18364;SDS011;9309;52.126;11.616;2023-03-17T07:45:26;3.10;;;2.87;;
18364;SDS011;9309;52.126;11.616;2023-03-17T07:47:54;3.87;;;3.57;;
18364;SDS011;9309;52.126;11.616;2023-03-17T07:50:21;4.63;;;3.50;;
18364;SDS011;9309;52.126;11.616;2023-03-17T07:52:47;4.87;;;3.70;;
18364;SDS011;9309;52.126;11.616;2023-03-17T07:55:14;5.80;;;2.53;;
18364;SDS011;9309;52.126;11.616;2023-03-17T07:57:42;4.33;;;3.03;;
18364;SDS011;9309;52.126;11.616;2023-03-17T08:00:09;5.83;;;3.97;;
18364;SDS011;9309;52.126;11.616;2023-03-17T08:02:37;6.87;;;4.03;;
18364;SDS011;9309;52.126;11.616;2023-03-17T08:05:06;9.13;;;3.67;;
18364;SDS011;9309;52.126;11.616;2023-03-17T08:07:34;6.27;;;3.50;;
18364;SDS011;9309;52.126;11.616;2023-03-17T08:10:02;5.20;;;3.33;;
18364;SDS011;9309;52.126;11.616;2023-03-17T08:12:29;4.57;;;3.80;;
18364;SDS011;9309;52.126;11.616;2023-03-17T08:14:56;5.67;;;4.57;;
18364;SDS011;9309;52.126;11.616;2023-03-17T08:17:23;3.77;;;3.50;;
18364;SDS011;9309;52.126;11.616;2023-03-17T08:19:51;5.67;;;3.50;;
18364;SDS011;9309;52.126;11.616;2023-03-17T08:22:19;4.50;;;4.10;;
18364;SDS011;9309;52.126;11.616;2023-03-17T08:24:45;7.97;;;3.43;;
18364;SDS011;9309;52.126;11.616;2023-03-17T08:27:12;3.50;;;3.30;;
18364;SDS011;9309;52.126;11.616;2023-03-17T08:29:39;3.70;;;3.43;;
18364;SDS011;9309;52.126;11.616;2023-03-17T08:32:07;6.33;;;3.23;;
18364;SDS011;9309;52.126;11.616;2023-03-17T08:34:34;5.03;;;3.50;;
18364;SDS011;9309;52.126;11.616;2023-03-17T08:37:00;4.00;;;3.60;;
18364;SDS011;9309;52.126;11.616;2023-03-17T08:39:29;5.73;;;3.80;;
18364;SDS011;9309;52.126;11.616;2023-03-17T08:41:55;7.37;;;3.50;;
18364;SDS011;9309;52.126;11.616;2023-03-17T08:44:22;3.50;;;3.20;;
18364;SDS011;9309;52.126;11.616;2023-03-17T08:46:49;4.37;;;3.20;;
18364;SDS011;9309;52.126;11.616;2023-03-17T08:49:16;5.40;;;3.67;;
18364;SDS011;9309;52.126;11.616;2023-03-17T08:51:43;5.23;;;3.23;;
18364;SDS011;9309;52.126;11.616;2023-03-17T08:54:10;3.27;;;2.67;;
18364;SDS011;9309;52.126;11.616;2023-03-17T08:56:39;7.83;;;3.10;;
18364;SDS011;9309;52.126;11.616;2023-03-17T08:59:07;2.70;;;2.60;;
18364;SDS011;9309;52.126;11.616;2023-03-17T09:01:34;6.10;;;3.13;;
18364;SDS011;9309;52.126;11.616;2023-03-17T09:04:01;5.20;;;3.20;;
18364;SDS011;9309;52.126;11.616;2023-03-17T09:06:29;4.33;;;3.30;;
18364;SDS011;9309;52.126;11.616;2023-03-17T09:08:56;3.87;;;3.40;;
18364;SDS011;9309;52.126;11.616;2023-03-17T09:11:23;4.23;;;3.10;;
18364;SDS011;9309;52.126;11.616;2023-03-17T09:13:53;3.63;;;3.20;;
18364;SDS011;9309;52.126;11.616;2023-03-17T09:16:20;2.60;;;2.40;;
18364;SDS011;9309;52.126;11.616;2023-03-17T09:18:48;5.60;;;3.20;;
18364;SDS011;9309;52.126;11.616;2023-03-17T09:21:15;4.67;;;3.47;;
18364;SDS011;9309;52.126;11.616;2023-03-17T09:23:42;3.20;;;3.00;;
18364;SDS011;9309;52.126;11.616;2023-03-17T09:26:09;5.10;;;3.40;;
18364;SDS011;9309;52.126;11.616;2023-03-17T09:28:36;7.10;;;3.43;;
18364;SDS011;9309;52.126;11.616;2023-03-17T09:31:05;4.57;;;3.10;;
18364;SDS011;9309;52.126;11.616;2023-03-17T09:33:35;2.63;;;2.50;;
18364;SDS011;9309;52.126;11.616;2023-03-17T09:36:02;5.30;;;3.30;;
18364;SDS011;9309;52.126;11.616;2023-03-17T09:38:29;8.20;;;3.10;;
18364;SDS011;9309;52.126;11.616;2023-03-17T09:40:57;3.93;;;3.40;;
18364;SDS011;9309;52.126;11.616;2023-03-17T09:43:33;8.17;;;4.07;;
18364;SDS011;9309;52.126;11.616;2023-03-17T09:46:09;5.03;;;2.87;;
18364;SDS011;9309;52.126;11.616;2023-03-17T09:48:49;3.13;;;2.83;;
18364;SDS011;9309;52.126;11.616;2023-03-17T09:51:24;3.03;;;2.77;;
18364;SDS011;9309;52.126;11.616;2023-03-17T09:53:53;3.20;;;3.00;;
18364;SDS011;9309;52.126;11.616;2023-03-17T09:56:25;2.43;;;2.30;;
18364;SDS011;9309;52.126;11.616;2023-03-17T09:58:55;7.30;;;3.53;;
18364;SDS011;9309;52.126;11.616;2023-03-17T10:01:26;7.03;;;3.30;;
18364;SDS011;9309;52.126;11.616;2023-03-17T10:03:53;2.70;;;2.50;;
18364;SDS011;9309;52.126;11.616;2023-03-17T10:06:31;3.53;;;3.23;;
18364;SDS011;9309;52.126;11.616;2023-03-17T10:09:17;6.13;;;3.20;;
18364;SDS011;9309;52.126;11.616;2023-03-17T10:11:53;5.23;;;2.90;;
18364;SDS011;9309;52.126;11.616;2023-03-17T10:14:34;5.80;;;3.40;;
18364;SDS011;9309;52.126;11.616;2023-03-17T10:17:12;5.03;;;3.10;;
18364;SDS011;9309;52.126;11.616;2023-03-17T10:19:43;4.83;;;3.27;;
18364;SDS011;9309;52.126;11.616;2023-03-17T10:22:14;3.00;;;2.67;;
18364;SDS011;9309;52.126;11.616;2023-03-17T10:24:46;4.30;;;3.00;;
18364;SDS011;9309;52.126;11.616;2023-03-17T10:27:16;4.40;;;3.13;;
18364;SDS011;9309;52.126;11.616;2023-03-17T10:29:44;7.40;;;2.93;;
18364;SDS011;9309;52.126;11.616;2023-03-17T10:32:12;4.00;;;3.00;;
18364;SDS011;9309;52.126;11.616;2023-03-17T10:34:40;3.23;;;3.03;;
18364;SDS011;9309;52.126;11.616;2023-03-17T10:37:08;3.07;;;2.83;;
18364;SDS011;9309;52.126;11.616;2023-03-17T10:39:43;4.10;;;2.70;;
18364;SDS011;9309;52.126;11.616;2023-03-17T10:42:12;5.47;;;2.90;;
18364;SDS011;9309;52.126;11.616;2023-03-17T10:44:47;5.27;;;3.23;;
18364;SDS011;9309;52.126;11.616;2023-03-17T10:47:28;2.77;;;2.57;;
18364;SDS011;9309;52.126;11.616;2023-03-17T10:49:57;3.40;;;3.10;;
18364;SDS011;9309;52.126;11.616;2023-03-17T10:52:28;3.80;;;2.83;;
18364;SDS011;9309;52.126;11.616;2023-03-17T10:54:59;4.67;;;2.97;;
18364;SDS011;9309;52.126;11.616;2023-03-17T10:57:27;3.20;;;2.90;;
18364;SDS011;9309;52.126;11.616;2023-03-17T10:59:55;5.77;;;3.00;;
18364;SDS011;9309;52.126;11.616;2023-03-17T11:02:26;5.77;;;3.60;;
18364;SDS011;9309;52.126;11.616;2023-03-17T11:04:57;3.13;;;3.00;;
18364;SDS011;9309;52.126;11.616;2023-03-17T11:07:27;3.07;;;2.87;;
18364;SDS011;9309;52.126;11.616;2023-03-17T11:09:59;3.80;;;2.67;;
18364;SDS011;9309;52.126;11.616;2023-03-17T11:12:28;5.37;;;3.00;;
18364;SDS011;9309;52.126;11.616;2023-03-17T11:15:04;2.57;;;2.37;;
18364;SDS011;9309;52.126;11.616;2023-03-17T11:17:35;2.70;;;2.60;;
18364;SDS011;9309;52.126;11.616;2023-03-17T11:20:12;3.07;;;2.90;;
18364;SDS011;9309;52.126;11.616;2023-03-17T11:22:51;3.70;;;2.80;;
18364;SDS011;9309;52.126;11.616;2023-03-17T11:25:22;4.30;;;2.50;;
18364;SDS011;9309;52.126;11.616;2023-03-17T11:27:50;2.80;;;2.70;;
18364;SDS011;9309;52.126;11.616;2023-03-17T11:30:23;2.57;;;2.23;;
18364;SDS011;9309;52.126;11.616;2023-03-17T11:32:58;6.97;;;3.10;;
18364;SDS011;9309;52.126;11.616;2023-03-17T11:35:45;2.40;;;2.20;;
18364;SDS011;9309;52.126;11.616;2023-03-17T11:38:21;3.10;;;2.90;;
18364;SDS011;9309;52.126;11.616;2023-03-17T11:43:45;3.10;;;2.80;;
18364;SDS011;9309;52.126;11.616;2023-03-17T11:46:30;2.67;;;2.33;;
18364;SDS011;9309;52.126;11.616;2023-03-17T11:49:03;2.40;;;2.20;;
18364;SDS011;9309;52.126;11.616;2023-03-17T11:51:40;2.57;;;2.37;;
18364;SDS011;9309;52.126;11.616;2023-03-17T11:54:18;4.37;;;2.80;;
18364;SDS011;9309;52.126;11.616;2023-03-17T11:56:49;2.60;;;2.40;;
18364;SDS011;9309;52.126;11.616;2023-03-17T11:59:22;2.60;;;2.50;;
18364;SDS011;9309;52.126;11.616;2023-03-17T12:01:57;9.00;;;2.50;;
18364;SDS011;9309;52.126;11.616;2023-03-17T12:04:33;2.75;;;2.50;;
18364;SDS011;9309;52.126;11.616;2023-03-17T12:07:03;2.30;;;2.20;;
18364;SDS011;9309;52.126;11.616;2023-03-17T12:09:45;2.65;;;2.45;;
18364;SDS011;9309;52.126;11.616;2023-03-17T12:12:16;4.03;;;2.55;;
18364;SDS011;9309;52.126;11.616;2023-03-17T12:14:53;4.95;;;2.83;;
18364;SDS011;9309;52.126;11.616;2023-03-17T12:17:23;2.40;;;2.30;;
18364;SDS011;9309;52.126;11.616;2023-03-17T12:19:57;4.82;;;2.88;;
18364;SDS011;9309;52.126;11.616;2023-03-17T12:22:32;7.57;;;2.40;;
18364;SDS011;9309;52.126;11.616;2023-03-17T12:25:03;2.80;;;2.60;;
18364;SDS011;9309;52.126;11.616;2023-03-17T12:27:40;2.67;;;2.47;;
18364;SDS011;9309;52.126;11.616;2023-03-17T12:30:15;3.22;;;2.50;;
18364;SDS011;9309;52.126;11.616;2023-03-17T12:32:48;5.40;;;2.23;;
18364;SDS011;9309;52.126;11.616;2023-03-17T12:35:24;4.27;;;2.90;;
18364;SDS011;9309;52.126;11.616;2023-03-17T12:37:52;2.83;;;2.63;;
18364;SDS011;9309;52.126;11.616;2023-03-17T12:40:21;3.83;;;2.23;;
18364;SDS011;9309;52.126;11.616;2023-03-17T12:42:50;4.30;;;2.63;;
18364;SDS011;9309;52.126;11.616;2023-03-17T12:45:35;3.97;;;2.80;;
18364;SDS011;9309;52.126;11.616;2023-03-17T12:48:18;4.67;;;2.60;;
18364;SDS011;9309;52.126;11.616;2023-03-17T12:51:18;3.77;;;2.80;;
18364;SDS011;9309;52.126;11.616;2023-03-17T12:54:13;2.77;;;2.53;;
18364;SDS011;9309;52.126;11.616;2023-03-17T12:56:45;5.23;;;2.70;;
18364;SDS011;9309;52.126;11.616;2023-03-17T12:59:14;2.60;;;2.40;;
18364;SDS011;9309;52.126;11.616;2023-03-17T13:01:44;3.37;;;2.70;;
18364;SDS011;9309;52.126;11.616;2023-03-17T13:04:14;6.40;;;2.70;;
18364;SDS011;9309;52.126;11.616;2023-03-17T13:06:53;3.70;;;2.80;;
18364;SDS011;9309;52.126;11.616;2023-03-17T13:09:25;2.90;;;2.60;;
18364;SDS011;9309;52.126;11.616;2023-03-17T13:12:32;3.20;;;2.90;;
18364;SDS011;9309;52.126;11.616;2023-03-17T13:15:21;5.67;;;2.70;;
18364;SDS011;9309;52.126;11.616;2023-03-17T13:18:19;5.93;;;2.63;;
18364;SDS011;9309;52.126;11.616;2023-03-17T13:20:50;3.13;;;2.63;;
18364;SDS011;9309;52.126;11.616;2023-03-17T13:23:36;2.83;;;2.53;;
18364;SDS011;9309;52.126;11.616;2023-03-17T13:26:06;3.07;;;2.80;;
18364;SDS011;9309;52.126;11.616;2023-03-17T13:28:38;3.63;;;2.83;;
18364;SDS011;9309;52.126;11.616;2023-03-17T13:31:09;2.90;;;2.30;;
18364;SDS011;9309;52.126;11.616;2023-03-17T13:33:41;7.80;;;2.60;;
18364;SDS011;9309;52.126;11.616;2023-03-17T13:36:26;7.70;;;2.70;;
18364;SDS011;9309;52.126;11.616;2023-03-17T13:39:02;4.17;;;2.40;;
18364;SDS011;9309;52.126;11.616;2023-03-17T13:41:54;2.87;;;2.67;;
18364;SDS011;9309;52.126;11.616;2023-03-17T13:44:42;2.93;;;2.63;;
18364;SDS011;9309;52.126;11.616;2023-03-17T13:47:24;3.73;;;2.43;;
18364;SDS011;9309;52.126;11.616;2023-03-17T13:49:59;4.53;;;2.60;;
18364;SDS011;9309;52.126;11.616;2023-03-17T13:52:29;2.97;;;2.77;;
18364;SDS011;9309;52.126;11.616;2023-03-17T13:55:01;4.37;;;2.87;;
18364;SDS011;9309;52.126;11.616;2023-03-17T13:57:53;5.23;;;2.67;;
18364;SDS011;9309;52.126;11.616;2023-03-17T14:00:22;3.40;;;2.30;;
18364;SDS011;9309;52.126;11.616;2023-03-17T14:02:52;2.50;;;2.40;;
18364;SDS011;9309;52.126;11.616;2023-03-17T14:05:27;3.93;;;2.90;;
18364;SDS011;9309;52.126;11.616;2023-03-17T14:07:57;2.47;;;2.13;;
18364;SDS011;9309;52.126;11.616;2023-03-17T14:10:28;3.20;;;2.50;;
18364;SDS011;9309;52.126;11.616;2023-03-17T14:12:57;5.70;;;2.50;;
18364;SDS011;9309;52.126;11.616;2023-03-17T14:15:29;4.07;;;2.90;;
18364;SDS011;9309;52.126;11.616;2023-03-17T14:18:06;4.67;;;2.67;;
18364;SDS011;9309;52.126;11.616;2023-03-17T14:20:40;3.47;;;2.77;;
18364;SDS011;9309;52.126;11.616;2023-03-17T14:23:17;2.70;;;2.50;;
18364;SDS011;9309;52.126;11.616;2023-03-17T14:25:45;2.50;;;2.30;;
18364;SDS011;9309;52.126;11.616;2023-03-17T14:28:15;3.30;;;2.20;;
18364;SDS011;9309;52.126;11.616;2023-03-17T14:30:49;2.30;;;2.20;;
18364;SDS011;9309;52.126;11.616;2023-03-17T14:33:20;2.50;;;2.10;;
18364;SDS011;9309;52.126;11.616;2023-03-17T14:35:49;6.27;;;2.37;;
18364;SDS011;9309;52.126;11.616;2023-03-17T14:38:18;4.50;;;2.60;;
18364;SDS011;9309;52.126;11.616;2023-03-17T14:40:48;7.43;;;2.70;;
18364;SDS011;9309;52.126;11.616;2023-03-17T14:43:15;4.40;;;2.53;;
18364;SDS011;9309;52.126;11.616;2023-03-17T14:45:47;4.13;;;2.80;;
18364;SDS011;9309;52.126;11.616;2023-03-17T14:48:15;3.47;;;2.67;;
18364;SDS011;9309;52.126;11.616;2023-03-17T14:50:48;3.10;;;2.37;;
18364;SDS011;9309;52.126;11.616;2023-03-17T14:53:18;2.67;;;2.47;;
18364;SDS011;9309;52.126;11.616;2023-03-17T14:55:49;3.97;;;2.80;;
18364;SDS011;9309;52.126;11.616;2023-03-17T14:58:19;6.27;;;2.73;;
18364;SDS011;9309;52.126;11.616;2023-03-17T15:00:52;4.67;;;2.67;;
18364;SDS011;9309;52.126;11.616;2023-03-17T15:03:23;3.63;;;2.57;;
18364;SDS011;9309;52.126;11.616;2023-03-17T15:06:01;3.13;;;2.43;;
18364;SDS011;9309;52.126;11.616;2023-03-17T15:08:40;6.20;;;3.10;;
18364;SDS011;9309;52.126;11.616;2023-03-17T15:11:25;5.80;;;2.67;;
18364;SDS011;9309;52.126;11.616;2023-03-17T15:13:54;10.43;;;2.87;;
18364;SDS011;9309;52.126;11.616;2023-03-17T15:16:29;7.00;;;3.10;;
18364;SDS011;9309;52.126;11.616;2023-03-17T15:19:02;4.70;;;3.20;;
18364;SDS011;9309;52.126;11.616;2023-03-17T15:21:32;3.17;;;2.70;;
18364;SDS011;9309;52.126;11.616;2023-03-17T15:24:03;2.83;;;2.63;;
18364;SDS011;9309;52.126;11.616;2023-03-17T15:26:32;3.57;;;2.90;;